sensor_id;sensor_type;location;lat;lon;timestamp;pressure;altitude;pressure_sealevel;temperature;humidity
60817;BME280;51921;51.518;-3.188;2022-09-27T00:00:14;100357.97;;;8.92;88.45
60817;BME280;51921;51.518;-3.188;2022-09-27T00:02:39;100363.66;;;8.70;91.41
60817;BME280;51921;51.518;-3.188;2022-09-27T00:05:04;100368.86;;;8.26;93.26
60817;BME280;51921;51.518;-3.188;2022-09-27T00:07:30;100368.41;;;8.36;91.72
60817;BME280;51921;51.518;-3.188;2022-09-27T00:09:55;100373.47;;;9.21;88.59
60817;BME280;51921;51.518;-3.188;2022-09-27T00:12:21;100378.33;;;8.71;89.85
60817;BME280;51921;51.518;-3.188;2022-09-27T00:14:46;100382.03;;;8.27;93.39
60817;BME280;51921;51.518;-3.188;2022-09-27T00:17:12;100376.67;;;8.23;92.66
60817;BME280;51921;51.518;-3.188;2022-09-27T00:19:37;100377.48;;;8.66;91.41
60817;BME280;51921;51.518;-3.188;2022-09-27T00:22:03;100376.94;;;7.71;95.34
60817;BME280;51921;51.518;-3.188;2022-09-27T00:24:29;100372.97;;;7.98;95.47
60817;BME280;51921;51.518;-3.188;2022-09-27T00:26:54;100364.64;;;8.24;92.92
60817;BME280;51921;51.518;-3.188;2022-09-27T00:29:20;100361.40;;;7.76;93.76
60817;BME280;51921;51.518;-3.188;2022-09-27T00:31:46;100358.23;;;7.97;93.77
60817;BME280;51921;51.518;-3.188;2022-09-27T00:34:17;100349.56;;;7.65;95.37
60817;BME280;51921;51.518;-3.188;2022-09-27T00:36:36;100338.31;;;8.89;89.58
60817;BME280;51921;51.518;-3.188;2022-09-27T00:39:01;100331.89;;;8.42;90.08
60817;BME280;51921;51.518;-3.188;2022-09-27T00:41:30;100331.02;;;8.72;90.23
60817;BME280;51921;51.518;-3.188;2022-09-27T00:43:54;100343.80;;;8.28;89.65
60817;BME280;51921;51.518;-3.188;2022-09-27T00:46:23;100343.40;;;8.86;89.95
60817;BME280;51921;51.518;-3.188;2022-09-27T00:48:44;100346.90;;;9.41;83.93
60817;BME280;51921;51.518;-3.188;2022-09-27T00:51:09;100341.71;;;9.62;83.25
60817;BME280;51921;51.518;-3.188;2022-09-27T00:53:39;100347.18;;;9.09;83.36
60817;BME280;51921;51.518;-3.188;2022-09-27T00:56:03;100352.22;;;10.37;80.92
60817;BME280;51921;51.518;-3.188;2022-09-27T00:58:28;100351.02;;;10.11;79.89
60817;BME280;51921;51.518;-3.188;2022-09-27T01:00:55;100345.91;;;10.37;79.44
60817;BME280;51921;51.518;-3.188;2022-09-27T01:03:22;100342.55;;;10.96;77.02
60817;BME280;51921;51.518;-3.188;2022-09-27T01:05:42;100342.94;;;9.96;79.83
60817;BME280;51921;51.518;-3.188;2022-09-27T01:08:08;100337.11;;;9.40;80.61
60817;BME280;51921;51.518;-3.188;2022-09-27T01:10:40;100334.19;;;9.90;77.92
60817;BME280;51921;51.518;-3.188;2022-09-27T01:13:05;100332.24;;;10.69;73.91
60817;BME280;51921;51.518;-3.188;2022-09-27T01:15:28;100320.43;;;11.19;72.16
60817;BME280;51921;51.518;-3.188;2022-09-27T01:18:01;100324.63;;;11.24;71.09
60817;BME280;51921;51.518;-3.188;2022-09-27T01:20:33;100320.77;;;11.50;70.22
60817;BME280;51921;51.518;-3.188;2022-09-27T01:22:46;100318.78;;;12.08;67.81
60817;BME280;51921;51.518;-3.188;2022-09-27T01:25:21;100312.93;;;11.94;68.67
60817;BME280;51921;51.518;-3.188;2022-09-27T01:27:49;100315.22;;;11.76;67.98
60817;BME280;51921;51.518;-3.188;2022-09-27T01:32:29;100315.85;;;11.67;67.89
60817;BME280;51921;51.518;-3.188;2022-09-27T01:34:54;100319.51;;;12.10;65.42
60817;BME280;51921;51.518;-3.188;2022-09-27T01:37:20;100321.50;;;12.04;65.08
60817;BME280;51921;51.518;-3.188;2022-09-27T01:39:45;100301.89;;;12.02;65.99
60817;BME280;51921;51.518;-3.188;2022-09-27T01:42:10;100296.28;;;12.14;66.74
60817;BME280;51921;51.518;-3.188;2022-09-27T01:44:34;100291.47;;;12.32;65.59
60817;BME280;51921;51.518;-3.188;2022-09-27T01:47:02;100295.83;;;11.52;67.45
60817;BME280;51921;51.518;-3.188;2022-09-27T01:49:28;100294.44;;;11.04;69.71
60817;BME280;51921;51.518;-3.188;2022-09-27T01:51:51;100282.09;;;11.63;67.45
60817;BME280;51921;51.518;-3.188;2022-09-27T01:54:18;100288.98;;;10.78;70.70
60817;BME280;51921;51.518;-3.188;2022-09-27T01:56:42;100290.93;;;12.46;65.92
60817;BME280;51921;51.518;-3.188;2022-09-27T01:59:06;100281.33;;;11.49;67.28
60817;BME280;51921;51.518;-3.188;2022-09-27T02:01:30;100299.57;;;11.84;66.08
60817;BME280;51921;51.518;-3.188;2022-09-27T02:03:55;100298.63;;;11.91;65.58
60817;BME280;51921;51.518;-3.188;2022-09-27T02:06:22;100296.79;;;12.33;65.29
60817;BME280;51921;51.518;-3.188;2022-09-27T02:08:49;100299.61;;;12.96;63.55
60817;BME280;51921;51.518;-3.188;2022-09-27T02:11:12;100304.03;;;12.47;64.77
60817;BME280;51921;51.518;-3.188;2022-09-27T02:13:41;100305.34;;;11.84;66.60
60817;BME280;51921;51.518;-3.188;2022-09-27T02:16:08;100300.19;;;12.33;66.49
60817;BME280;51921;51.518;-3.188;2022-09-27T02:18:32;100296.81;;;11.64;68.12
60817;BME280;51921;51.518;-3.188;2022-09-27T02:20:56;100294.43;;;10.95;69.39
60817;BME280;51921;51.518;-3.188;2022-09-27T02:23:22;100287.05;;;10.80;70.21
60817;BME280;51921;51.518;-3.188;2022-09-27T02:25:48;100281.60;;;10.53;70.64
60817;BME280;51921;51.518;-3.188;2022-09-27T02:28:17;100266.28;;;10.37;70.95
60817;BME280;51921;51.518;-3.188;2022-09-27T02:30:34;100280.33;;;9.82;72.72
60817;BME280;51921;51.518;-3.188;2022-09-27T02:32:59;100276.53;;;9.02;77.85
60817;BME280;51921;51.518;-3.188;2022-09-27T02:35:27;100278.34;;;8.74;81.95
60817;BME280;51921;51.518;-3.188;2022-09-27T02:37:51;100285.00;;;8.79;83.84
60817;BME280;51921;51.518;-3.188;2022-09-27T02:40:16;100282.40;;;8.27;84.37
60817;BME280;51921;51.518;-3.188;2022-09-27T02:42:42;100277.90;;;8.31;83.94
60817;BME280;51921;51.518;-3.188;2022-09-27T02:45:08;100279.22;;;8.06;85.71
60817;BME280;51921;51.518;-3.188;2022-09-27T02:47:45;100278.61;;;7.77;86.66
60817;BME280;51921;51.518;-3.188;2022-09-27T02:52:32;100262.25;;;8.40;83.45
60817;BME280;51921;51.518;-3.188;2022-09-27T02:54:59;100265.07;;;8.89;80.44
60817;BME280;51921;51.518;-3.188;2022-09-27T02:57:24;100265.18;;;8.63;81.67
60817;BME280;51921;51.518;-3.188;2022-09-27T02:59:47;100264.21;;;8.45;81.54
60817;BME280;51921;51.518;-3.188;2022-09-27T03:02:11;100266.95;;;8.14;84.44
60817;BME280;51921;51.518;-3.188;2022-09-27T03:04:34;100257.29;;;7.70;86.09
60817;BME280;51921;51.518;-3.188;2022-09-27T03:06:58;100259.28;;;7.60;86.95
60817;BME280;51921;51.518;-3.188;2022-09-27T03:09:24;100262.56;;;7.99;84.18
60817;BME280;51921;51.518;-3.188;2022-09-27T03:11:47;100253.38;;;7.86;82.49
60817;BME280;51921;51.518;-3.188;2022-09-27T03:14:12;100260.40;;;8.06;82.24
60817;BME280;51921;51.518;-3.188;2022-09-27T03:16:38;100249.12;;;8.62;79.18
60817;BME280;51921;51.518;-3.188;2022-09-27T03:19:03;100237.42;;;9.54;76.61
60817;BME280;51921;51.518;-3.188;2022-09-27T03:21:29;100238.60;;;9.04;75.94
60817;BME280;51921;51.518;-3.188;2022-09-27T03:23:55;100236.12;;;9.41;74.74
60817;BME280;51921;51.518;-3.188;2022-09-27T03:26:20;100233.56;;;9.86;72.78
60817;BME280;51921;51.518;-3.188;2022-09-27T03:28:46;100236.40;;;8.81;75.99
60817;BME280;51921;51.518;-3.188;2022-09-27T03:31:11;100238.22;;;8.52;78.47
60817;BME280;51921;51.518;-3.188;2022-09-27T03:33:37;100231.97;;;9.68;73.90
60817;BME280;51921;51.518;-3.188;2022-09-27T03:36:02;100236.45;;;8.79;76.02
60817;BME280;51921;51.518;-3.188;2022-09-27T03:38:28;100233.09;;;8.96;75.47
60817;BME280;51921;51.518;-3.188;2022-09-27T03:40:53;100227.51;;;8.30;76.63
60817;BME280;51921;51.518;-3.188;2022-09-27T03:43:19;100222.74;;;9.68;73.54
60817;BME280;51921;51.518;-3.188;2022-09-27T03:45:44;100218.20;;;9.55;72.30
60817;BME280;51921;51.518;-3.188;2022-09-27T03:48:10;100217.06;;;8.98;73.55
60817;BME280;51921;51.518;-3.188;2022-09-27T03:50:35;100219.73;;;8.82;77.41
60817;BME280;51921;51.518;-3.188;2022-09-27T03:53:01;100214.27;;;8.84;77.45
60817;BME280;51921;51.518;-3.188;2022-09-27T03:55:26;100207.47;;;9.09;77.54
60817;BME280;51921;51.518;-3.188;2022-09-27T03:57:52;100202.98;;;8.33;77.59
60817;BME280;51921;51.518;-3.188;2022-09-27T04:00:17;100205.15;;;8.98;78.23
60817;BME280;51921;51.518;-3.188;2022-09-27T04:02:43;100210.27;;;8.28;80.31
60817;BME280;51921;51.518;-3.188;2022-09-27T04:05:09;100210.18;;;8.42;81.21
60817;BME280;51921;51.518;-3.188;2022-09-27T04:07:34;100206.42;;;8.55;79.26
60817;BME280;51921;51.518;-3.188;2022-09-27T04:09:59;100197.03;;;9.20;78.04
60817;BME280;51921;51.518;-3.188;2022-09-27T04:12:25;100197.03;;;8.67;79.40
60817;BME280;51921;51.518;-3.188;2022-09-27T04:14:50;100191.91;;;8.69;80.53
60817;BME280;51921;51.518;-3.188;2022-09-27T04:17:17;100189.23;;;8.21;80.81
60817;BME280;51921;51.518;-3.188;2022-09-27T04:19:41;100182.30;;;8.46;81.36
60817;BME280;51921;51.518;-3.188;2022-09-27T04:22:07;100175.61;;;8.99;79.54
60817;BME280;51921;51.518;-3.188;2022-09-27T04:24:32;100180.27;;;8.19;83.32
60817;BME280;51921;51.518;-3.188;2022-09-27T04:26:58;100179.24;;;8.35;83.15
60817;BME280;51921;51.518;-3.188;2022-09-27T04:29:23;100182.34;;;8.24;83.61
60817;BME280;51921;51.518;-3.188;2022-09-27T04:31:49;100182.54;;;8.71;84.02
60817;BME280;51921;51.518;-3.188;2022-09-27T04:34:15;100179.58;;;8.39;84.51
60817;BME280;51921;51.518;-3.188;2022-09-27T04:36:40;100177.04;;;8.88;83.43
60817;BME280;51921;51.518;-3.188;2022-09-27T04:39:07;100173.34;;;9.14;82.52
60817;BME280;51921;51.518;-3.188;2022-09-27T04:41:31;100171.26;;;9.09;82.68
60817;BME280;51921;51.518;-3.188;2022-09-27T04:43:57;100176.11;;;8.42;84.75
60817;BME280;51921;51.518;-3.188;2022-09-27T04:46:22;100177.81;;;8.68;84.11
60817;BME280;51921;51.518;-3.188;2022-09-27T04:48:48;100173.63;;;9.21;81.98
60817;BME280;51921;51.518;-3.188;2022-09-27T04:51:13;100172.47;;;9.08;84.17
60817;BME280;51921;51.518;-3.188;2022-09-27T04:53:38;100173.13;;;8.71;85.36
60817;BME280;51921;51.518;-3.188;2022-09-27T04:56:04;100173.73;;;8.64;83.75
60817;BME280;51921;51.518;-3.188;2022-09-27T04:58:29;100167.68;;;8.45;85.30
60817;BME280;51921;51.518;-3.188;2022-09-27T05:00:55;100168.78;;;8.42;86.82
60817;BME280;51921;51.518;-3.188;2022-09-27T05:03:21;100162.74;;;7.91;89.47
60817;BME280;51921;51.518;-3.188;2022-09-27T05:05:46;100174.28;;;7.67;95.68
60817;BME280;51921;51.518;-3.188;2022-09-27T05:08:12;100174.56;;;8.00;98.70
60817;BME280;51921;51.518;-3.188;2022-09-27T05:10:37;100175.52;;;7.50;100.00
60817;BME280;51921;51.518;-3.188;2022-09-27T05:13:03;100175.21;;;8.20;100.00
60817;BME280;51921;51.518;-3.188;2022-09-27T05:15:28;100170.91;;;7.74;100.00
60817;BME280;51921;51.518;-3.188;2022-09-27T05:17:53;100164.14;;;7.89;100.00
60817;BME280;51921;51.518;-3.188;2022-09-27T05:20:19;100161.32;;;8.03;100.00
60817;BME280;51921;51.518;-3.188;2022-09-27T05:22:45;100155.31;;;8.70;98.48
60817;BME280;51921;51.518;-3.188;2022-09-27T05:25:10;100152.90;;;9.55;93.62
60817;BME280;51921;51.518;-3.188;2022-09-27T05:27:36;100144.48;;;8.57;94.44
60817;BME280;51921;51.518;-3.188;2022-09-27T05:30:01;100151.93;;;8.72;97.73
60817;BME280;51921;51.518;-3.188;2022-09-27T05:32:27;100141.86;;;9.04;95.21
60817;BME280;51921;51.518;-3.188;2022-09-27T05:34:52;100139.21;;;9.41;90.22
60817;BME280;51921;51.518;-3.188;2022-09-27T05:37:18;100139.22;;;9.94;90.05
60817;BME280;51921;51.518;-3.188;2022-09-27T05:39:43;100136.19;;;9.51;90.02
60817;BME280;51921;51.518;-3.188;2022-09-27T05:42:09;100143.69;;;9.07;89.97
60817;BME280;51921;51.518;-3.188;2022-09-27T05:44:34;100143.79;;;9.08;90.98
60817;BME280;51921;51.518;-3.188;2022-09-27T05:47:00;100154.53;;;10.04;88.77
60817;BME280;51921;51.518;-3.188;2022-09-27T05:49:25;100150.05;;;9.67;86.93
60817;BME280;51921;51.518;-3.188;2022-09-27T05:51:50;100145.83;;;9.31;88.79
60817;BME280;51921;51.518;-3.188;2022-09-27T05:54:15;100144.14;;;9.80;86.59
60817;BME280;51921;51.518;-3.188;2022-09-27T05:56:41;100141.10;;;9.47;86.30
60817;BME280;51921;51.518;-3.188;2022-09-27T05:59:06;100140.17;;;9.30;88.15
60817;BME280;51921;51.518;-3.188;2022-09-27T06:01:31;100139.17;;;9.02;91.33
60817;BME280;51921;51.518;-3.188;2022-09-27T06:03:56;100141.31;;;9.06;92.36
60817;BME280;51921;51.518;-3.188;2022-09-27T06:06:22;100140.25;;;8.09;96.78
60817;BME280;51921;51.518;-3.188;2022-09-27T06:08:47;100145.49;;;8.39;100.00
60817;BME280;51921;51.518;-3.188;2022-09-27T06:11:12;100148.46;;;8.23;99.25
60817;BME280;51921;51.518;-3.188;2022-09-27T06:13:38;100147.10;;;8.04;100.00
60817;BME280;51921;51.518;-3.188;2022-09-27T06:16:05;100151.57;;;8.06;100.00
60817;BME280;51921;51.518;-3.188;2022-09-27T06:18:29;100160.89;;;7.64;100.00
60817;BME280;51921;51.518;-3.188;2022-09-27T06:20:54;100156.85;;;7.36;100.00
60817;BME280;51921;51.518;-3.188;2022-09-27T06:23:21;100162.43;;;7.40;100.00
60817;BME280;51921;51.518;-3.188;2022-09-27T06:25:46;100161.87;;;7.15;100.00
60817;BME280;51921;51.518;-3.188;2022-09-27T06:28:11;100149.58;;;7.55;100.00
60817;BME280;51921;51.518;-3.188;2022-09-27T06:30:38;100149.92;;;7.64;100.00
60817;BME280;51921;51.518;-3.188;2022-09-27T06:33:02;100140.27;;;7.90;100.00
60817;BME280;51921;51.518;-3.188;2022-09-27T06:35:28;100136.60;;;8.17;100.00
60817;BME280;51921;51.518;-3.188;2022-09-27T06:37:53;100132.74;;;7.69;100.00
60817;BME280;51921;51.518;-3.188;2022-09-27T06:40:18;100131.37;;;8.42;100.00
60817;BME280;51921;51.518;-3.188;2022-09-27T06:42:44;100130.86;;;8.55;100.00
60817;BME280;51921;51.518;-3.188;2022-09-27T06:45:10;100129.29;;;8.03;100.00
60817;BME280;51921;51.518;-3.188;2022-09-27T06:47:35;100126.65;;;7.62;100.00
60817;BME280;51921;51.518;-3.188;2022-09-27T06:50:01;100121.10;;;8.65;100.00
60817;BME280;51921;51.518;-3.188;2022-09-27T06:52:26;100120.06;;;8.61;100.00
60817;BME280;51921;51.518;-3.188;2022-09-27T06:54:52;100124.38;;;7.90;100.00
60817;BME280;51921;51.518;-3.188;2022-09-27T06:57:17;100114.46;;;8.21;100.00
60817;BME280;51921;51.518;-3.188;2022-09-27T06:59:43;100113.92;;;8.17;100.00
60817;BME280;51921;51.518;-3.188;2022-09-27T07:02:08;100113.82;;;8.68;100.00
60817;BME280;51921;51.518;-3.188;2022-09-27T07:04:34;100111.18;;;8.97;100.00
60817;BME280;51921;51.518;-3.188;2022-09-27T07:06:59;100097.51;;;9.05;100.00
60817;BME280;51921;51.518;-3.188;2022-09-27T07:09:25;100089.03;;;9.04;100.00
60817;BME280;51921;51.518;-3.188;2022-09-27T07:11:50;100086.64;;;9.75;100.00
60817;BME280;51921;51.518;-3.188;2022-09-27T07:14:16;100082.52;;;9.03;100.00
60817;BME280;51921;51.518;-3.188;2022-09-27T07:16:41;100085.52;;;9.21;100.00
60817;BME280;51921;51.518;-3.188;2022-09-27T07:19:06;100083.04;;;8.89;100.00
60817;BME280;51921;51.518;-3.188;2022-09-27T07:21:32;100079.56;;;8.57;100.00
60817;BME280;51921;51.518;-3.188;2022-09-27T07:23:57;100072.33;;;9.01;100.00
60817;BME280;51921;51.518;-3.188;2022-09-27T07:26:22;100069.41;;;9.02;100.00
60817;BME280;51921;51.518;-3.188;2022-09-27T07:28:48;100067.40;;;8.98;100.00
60817;BME280;51921;51.518;-3.188;2022-09-27T07:31:13;100069.17;;;8.80;100.00
60817;BME280;51921;51.518;-3.188;2022-09-27T07:33:39;100073.49;;;8.73;100.00
60817;BME280;51921;51.518;-3.188;2022-09-27T07:36:07;100072.71;;;8.63;100.00
60817;BME280;51921;51.518;-3.188;2022-09-27T07:38:31;100069.56;;;9.14;100.00
60817;BME280;51921;51.518;-3.188;2022-09-27T07:40:56;100067.36;;;9.43;100.00
60817;BME280;51921;51.518;-3.188;2022-09-27T07:43:21;100077.61;;;9.01;100.00
60817;BME280;51921;51.518;-3.188;2022-09-27T07:45:47;100076.11;;;9.14;100.00
60817;BME280;51921;51.518;-3.188;2022-09-27T07:48:14;100073.93;;;9.35;100.00
60817;BME280;51921;51.518;-3.188;2022-09-27T07:50:38;100075.80;;;8.83;100.00
60817;BME280;51921;51.518;-3.188;2022-09-27T07:53:03;100080.83;;;8.71;100.00
60817;BME280;51921;51.518;-3.188;2022-09-27T07:55:29;100071.23;;;9.50;100.00
60817;BME280;51921;51.518;-3.188;2022-09-27T07:58:01;100075.51;;;9.43;100.00
60817;BME280;51921;51.518;-3.188;2022-09-27T08:00:19;100077.04;;;8.65;100.00
60817;BME280;51921;51.518;-3.188;2022-09-27T08:02:45;100075.07;;;8.86;100.00
60817;BME280;51921;51.518;-3.188;2022-09-27T08:05:11;100080.03;;;8.67;100.00
60817;BME280;51921;51.518;-3.188;2022-09-27T08:07:36;100075.97;;;8.31;100.00
60817;BME280;51921;51.518;-3.188;2022-09-27T08:10:01;100069.09;;;8.85;100.00
60817;BME280;51921;51.518;-3.188;2022-09-27T08:12:27;100068.68;;;9.44;100.00
60817;BME280;51921;51.518;-3.188;2022-09-27T08:14:52;100067.95;;;9.26;100.00
60817;BME280;51921;51.518;-3.188;2022-09-27T08:17:18;100066.58;;;9.09;100.00
60817;BME280;51921;51.518;-3.188;2022-09-27T08:19:43;100066.76;;;10.53;93.45
60817;BME280;51921;51.518;-3.188;2022-09-27T08:22:09;100064.68;;;9.12;98.67
60817;BME280;51921;51.518;-3.188;2022-09-27T08:24:34;100068.00;;;9.47;98.30
60817;BME280;51921;51.518;-3.188;2022-09-27T08:27:01;100075.75;;;10.07;94.24
60817;BME280;51921;51.518;-3.188;2022-09-27T08:29:25;100078.87;;;9.04;97.16
60817;BME280;51921;51.518;-3.188;2022-09-27T08:31:51;100077.03;;;9.56;98.26
60817;BME280;51921;51.518;-3.188;2022-09-27T08:34:16;100073.24;;;9.56;99.38
60817;BME280;51921;51.518;-3.188;2022-09-27T08:36:42;100077.92;;;8.82;100.00
60817;BME280;51921;51.518;-3.188;2022-09-27T08:39:07;100072.28;;;9.12;100.00
60817;BME280;51921;51.518;-3.188;2022-09-27T08:41:36;100076.47;;;8.60;100.00
60817;BME280;51921;51.518;-3.188;2022-09-27T08:44:06;100082.65;;;8.94;100.00
60817;BME280;51921;51.518;-3.188;2022-09-27T08:46:30;100083.67;;;8.72;100.00
60817;BME280;51921;51.518;-3.188;2022-09-27T08:48:52;100094.16;;;8.40;100.00
60817;BME280;51921;51.518;-3.188;2022-09-27T08:51:15;100096.13;;;9.05;100.00
60817;BME280;51921;51.518;-3.188;2022-09-27T08:53:45;100081.55;;;9.15;100.00
60817;BME280;51921;51.518;-3.188;2022-09-27T08:56:07;100080.45;;;9.26;100.00
60817;BME280;51921;51.518;-3.188;2022-09-27T08:58:32;100090.62;;;8.77;100.00
60817;BME280;51921;51.518;-3.188;2022-09-27T09:00:57;100083.23;;;8.78;100.00
60817;BME280;51921;51.518;-3.188;2022-09-27T09:03:23;100085.14;;;9.34;100.00
60817;BME280;51921;51.518;-3.188;2022-09-27T09:05:55;100074.04;;;9.24;100.00
60817;BME280;51921;51.518;-3.188;2022-09-27T09:08:24;100062.65;;;9.39;100.00
60817;BME280;51921;51.518;-3.188;2022-09-27T09:10:47;100049.85;;;9.35;98.32
60817;BME280;51921;51.518;-3.188;2022-09-27T09:13:07;100055.15;;;9.93;98.36
60817;BME280;51921;51.518;-3.188;2022-09-27T09:15:35;100052.29;;;9.71;100.00
60817;BME280;51921;51.518;-3.188;2022-09-27T09:18:07;100044.38;;;9.76;98.98
60817;BME280;51921;51.518;-3.188;2022-09-27T09:20:28;100048.91;;;9.72;97.05
60817;BME280;51921;51.518;-3.188;2022-09-27T09:23:01;100040.26;;;9.95;94.61
60817;BME280;51921;51.518;-3.188;2022-09-27T09:25:21;100040.07;;;9.64;93.79
60817;BME280;51921;51.518;-3.188;2022-09-27T09:27:39;100051.40;;;9.57;95.82
60817;BME280;51921;51.518;-3.188;2022-09-27T09:32:33;100055.69;;;9.67;95.03
60817;BME280;51921;51.518;-3.188;2022-09-27T09:34:57;100058.20;;;10.62;91.70
60817;BME280;51921;51.518;-3.188;2022-09-27T09:37:19;100053.65;;;10.28;92.36
60817;BME280;51921;51.518;-3.188;2022-09-27T09:39:44;100044.98;;;10.46;90.48
60817;BME280;51921;51.518;-3.188;2022-09-27T09:42:10;100034.84;;;10.26;91.23
60817;BME280;51921;51.518;-3.188;2022-09-27T09:44:40;100030.17;;;10.37;91.58
60817;BME280;51921;51.518;-3.188;2022-09-27T09:47:00;100030.97;;;9.76;93.08
60817;BME280;51921;51.518;-3.188;2022-09-27T09:49:28;100040.23;;;10.24;91.26
60817;BME280;51921;51.518;-3.188;2022-09-27T09:51:51;100049.79;;;10.24;91.48
60817;BME280;51921;51.518;-3.188;2022-09-27T09:54:20;100046.89;;;10.46;89.94
60817;BME280;51921;51.518;-3.188;2022-09-27T09:56:42;100053.81;;;10.51;90.87
60817;BME280;51921;51.518;-3.188;2022-09-27T09:59:09;100046.94;;;10.10;91.21
60817;BME280;51921;51.518;-3.188;2022-09-27T10:01:34;100037.49;;;10.67;86.51
60817;BME280;51921;51.518;-3.188;2022-09-27T10:03:55;100028.52;;;10.54;87.20
60817;BME280;51921;51.518;-3.188;2022-09-27T10:06:22;100020.36;;;10.58;88.54
60817;BME280;51921;51.518;-3.188;2022-09-27T10:08:46;100017.73;;;10.91;86.75
60817;BME280;51921;51.518;-3.188;2022-09-27T10:11:18;100024.86;;;10.66;87.86
60817;BME280;51921;51.518;-3.188;2022-09-27T10:13:37;100022.62;;;10.28;89.96
60817;BME280;51921;51.518;-3.188;2022-09-27T10:16:04;100028.15;;;10.25;91.71
60817;BME280;51921;51.518;-3.188;2022-09-27T10:18:28;100023.09;;;10.55;88.33
60817;BME280;51921;51.518;-3.188;2022-09-27T10:20:57;100021.27;;;10.93;87.17
60817;BME280;51921;51.518;-3.188;2022-09-27T10:23:20;100030.66;;;10.50;90.22
60817;BME280;51921;51.518;-3.188;2022-09-27T10:25:48;100024.44;;;10.72;88.20
60817;BME280;51921;51.518;-3.188;2022-09-27T10:28:09;100022.29;;;10.80;87.86
60817;BME280;51921;51.518;-3.188;2022-09-27T10:30:36;100021.89;;;10.55;88.34
60817;BME280;51921;51.518;-3.188;2022-09-27T10:33:04;100022.66;;;11.05;87.11
60817;BME280;51921;51.518;-3.188;2022-09-27T10:35:35;100016.42;;;10.97;86.17
60817;BME280;51921;51.518;-3.188;2022-09-27T10:37:51;100010.30;;;10.78;87.52
60817;BME280;51921;51.518;-3.188;2022-09-27T10:40:25;99987.99;;;11.14;86.46
60817;BME280;51921;51.518;-3.188;2022-09-27T10:42:41;99995.62;;;11.00;85.34
60817;BME280;51921;51.518;-3.188;2022-09-27T10:45:24;99999.02;;;10.81;84.61
60817;BME280;51921;51.518;-3.188;2022-09-27T10:47:32;99997.92;;;10.72;85.93
60817;BME280;51921;51.518;-3.188;2022-09-27T10:50:03;99976.81;;;11.07;84.32
60817;BME280;51921;51.518;-3.188;2022-09-27T10:52:23;99979.87;;;11.34;82.87
60817;BME280;51921;51.518;-3.188;2022-09-27T10:54:53;99966.02;;;10.80;81.88
60817;BME280;51921;51.518;-3.188;2022-09-27T10:57:18;99973.30;;;11.26;81.54
60817;BME280;51921;51.518;-3.188;2022-09-27T10:59:42;99979.85;;;10.91;84.41
60817;BME280;51921;51.518;-3.188;2022-09-27T11:02:05;99983.80;;;10.62;83.63
60817;BME280;51921;51.518;-3.188;2022-09-27T11:04:32;99987.79;;;10.71;82.27
60817;BME280;51921;51.518;-3.188;2022-09-27T11:07:06;99989.13;;;11.05;81.25
60817;BME280;51921;51.518;-3.188;2022-09-27T11:09:22;99980.75;;;11.28;78.76
60817;BME280;51921;51.518;-3.188;2022-09-27T11:11:45;99975.35;;;11.47;76.90
60817;BME280;51921;51.518;-3.188;2022-09-27T11:14:19;99985.16;;;11.16;75.40
60817;BME280;51921;51.518;-3.188;2022-09-27T11:16:44;99995.77;;;11.16;76.84
60817;BME280;51921;51.518;-3.188;2022-09-27T11:19:10;99997.40;;;11.23;75.25
60817;BME280;51921;51.518;-3.188;2022-09-27T11:21:32;99990.74;;;12.15;72.00
60817;BME280;51921;51.518;-3.188;2022-09-27T11:24:02;99988.95;;;11.28;72.34
60817;BME280;51921;51.518;-3.188;2022-09-27T11:26:29;99991.29;;;11.04;74.56
60817;BME280;51921;51.518;-3.188;2022-09-27T11:28:51;99987.83;;;10.76;75.71
60817;BME280;51921;51.518;-3.188;2022-09-27T11:31:15;99979.56;;;10.91;73.23
60817;BME280;51921;51.518;-3.188;2022-09-27T11:33:44;99969.92;;;11.27;73.51
60817;BME280;51921;51.518;-3.188;2022-09-27T11:36:04;99962.40;;;11.10;74.11
60817;BME280;51921;51.518;-3.188;2022-09-27T11:38:30;99961.45;;;11.45;73.20
60817;BME280;51921;51.518;-3.188;2022-09-27T11:41:02;99959.08;;;11.71;69.97
60817;BME280;51921;51.518;-3.188;2022-09-27T11:43:29;99967.33;;;11.78;69.80
60817;BME280;51921;51.518;-3.188;2022-09-27T11:45:53;99950.32;;;11.21;73.41
60817;BME280;51921;51.518;-3.188;2022-09-27T11:48:17;99953.36;;;11.76;71.48
60817;BME280;51921;51.518;-3.188;2022-09-27T11:50:47;99944.07;;;11.63;71.20
60817;BME280;51921;51.518;-3.188;2022-09-27T11:53:08;99941.58;;;11.88;71.30
60817;BME280;51921;51.518;-3.188;2022-09-27T11:55:32;99941.93;;;11.71;71.70
60817;BME280;51921;51.518;-3.188;2022-09-27T11:57:55;99949.92;;;11.88;71.10
60817;BME280;51921;51.518;-3.188;2022-09-27T12:00:18;99948.67;;;12.14;70.25
60817;BME280;51921;51.518;-3.188;2022-09-27T12:02:55;99955.26;;;11.38;73.31
60817;BME280;51921;51.518;-3.188;2022-09-27T12:05:15;99960.85;;;11.45;73.74
60817;BME280;51921;51.518;-3.188;2022-09-27T12:07:34;99957.90;;;11.70;72.03
60817;BME280;51921;51.518;-3.188;2022-09-27T12:10:00;99954.38;;;12.08;69.72
60817;BME280;51921;51.518;-3.188;2022-09-27T12:12:22;99950.30;;;11.35;72.01
60817;BME280;51921;51.518;-3.188;2022-09-27T12:14:48;99942.71;;;12.10;69.91
60817;BME280;51921;51.518;-3.188;2022-09-27T12:17:15;99939.05;;;12.57;68.17
60817;BME280;51921;51.518;-3.188;2022-09-27T12:19:41;99939.90;;;12.64;68.00
60817;BME280;51921;51.518;-3.188;2022-09-27T12:22:04;99943.24;;;12.08;70.79
60817;BME280;51921;51.518;-3.188;2022-09-27T12:24:28;99940.82;;;12.48;69.63
60817;BME280;51921;51.518;-3.188;2022-09-27T12:26:55;99941.02;;;11.81;70.35
60817;BME280;51921;51.518;-3.188;2022-09-27T12:29:22;99934.88;;;11.99;70.18
60817;BME280;51921;51.518;-3.188;2022-09-27T12:31:46;99936.47;;;11.50;73.02
60817;BME280;51921;51.518;-3.188;2022-09-27T12:34:14;99934.46;;;11.66;70.58
60817;BME280;51921;51.518;-3.188;2022-09-27T12:36:36;99925.45;;;11.71;70.02
60817;BME280;51921;51.518;-3.188;2022-09-27T12:39:05;99925.35;;;13.10;67.98
60817;BME280;51921;51.518;-3.188;2022-09-27T12:41:26;99914.46;;;11.93;68.45